• Join FlightAware (Why Join?)
  • Login
  • US Flag 
09:38PM EDT


 

Airport Tracker/Info


-or-


 

Live Flight TrackerFlight Track Log ✈ N107AF ✈ 05-May-2013 ✈ KMLB - KPMP

Flight Track Log - Related Links

Times and Time Zones

All times are in EDT time to prevent confusion due to time zone crossing. See the N107AF flight status page for this flight to view local times or setup timezone preferences in your user account.

Time Position Orientation Groundspeed Altitude Reporting Facility
EDT Latitude Longitude Course Direction KTS MPH feet Rate Location/Type
06:14PM 28.0833 -80.7000 166° South 83 96 1,500  Level Orlando TRACON
06:15PM 28.0833 -80.7167 270° West 80 92 2,200 660 Climbing Orlando TRACON
06:16PM 28.0667 -80.7333 221° Southwest 78 90 2,900 600 Climbing Orlando TRACON
06:17PM 28.0667 -80.7500 270° West 87 100 3,400 360 Climbing Orlando TRACON
06:19PM 27.8913 -80.5834 166° South  Level Estimated
06:19PM 28.0033 -80.7653 192° South 95 109 4,000  Level Miami Center
06:20PM 27.9700 -80.7664 182° South 111 128 3,900 -60 Descending Miami Center
06:21PM 27.9364 -80.7675 182° South 125 144 3,900  Level Miami Center
06:22PM 27.9053 -80.7594 167° South 125 144 3,900  Level Miami Center
06:23PM 27.8744 -80.7467 160° South 120 138 4,000 60 Climbing Miami Center
06:24PM 27.8394 -80.7289 156° South 125 144 4,100  Climbing Miami Center
06:25PM 27.8086 -80.7117 154° Southeast 130 150 4,100  Level Miami Center
06:26PM 27.7778 -80.6942 153° Southeast 130 150 4,100 -60 Level Miami Center
06:27PM 27.7511 -80.6792 154° Southeast 130 150 4,000  Descending Miami Center
06:28PM 27.7203 -80.6617 153° Southeast 130 150 4,100  Climbing Miami Center
06:29PM 27.6831 -80.6486 163° South 130 150 4,100  Level Miami Center
06:30PM 27.6497 -80.6428 171° South 125 144 4,100  Level Miami Center
06:31PM 27.6183 -80.6394 175° South 125 144 4,100 -120 Level Miami Center
06:32PM 27.5872 -80.6361 175° South 125 144 3,900  Descending Miami Center
06:33PM 27.5539 -80.6328 175° South 120 138 4,100  Climbing Miami Center
06:34PM 27.5206 -80.6364 185° South 120 138 4,000  Descending Miami Center
06:35PM 27.4889 -80.6400 186° South 120 138 4,100  Climbing Miami Center
06:36PM 27.4575 -80.6483 193° South 120 138 4,100 -60 Level Miami Center
06:37PM 27.4303 -80.6519 187° South 120 138 4,000 -60 Descending Miami Center
06:38PM 27.3969 -80.6486 175° South 120 138 4,000 -60 Level Miami Center
06:39PM 27.3594 -80.6428 172° South 120 138 3,900  Descending Miami Center
06:40PM 27.3283 -80.6394 175° South 120 138 4,000 60 Climbing Miami Center
06:41PM 27.2950 -80.6336 171° South 125 144 4,100  Climbing Miami Center
06:42PM 27.2636 -80.6325 178° South 125 144 4,100  Level Miami Center
06:43PM 27.2264 -80.6289 175° South 125 144 4,100 -60 Level Miami Center
06:44PM 27.1931 -80.6256 175° South 125 144 4,000 -60 Descending Miami Center
06:45PM 27.1614 -80.6339 193° South 125 144 4,000  Level Miami Center
06:46PM 27.1322 -80.6331 179° South 125 144 4,000  Level Miami Center
06:47PM 27.0989 -80.6342 182° South 125 144 4,000  Level Miami Center
06:48PM 27.0611 -80.6331 178° South 125 144 4,100  Climbing Miami Center
06:49PM 27.0278 -80.6319 178° South 125 144 4,000 -120 Descending Miami Center
06:50PM 26.9944 -80.6308 178° South 125 144 3,900  Descending Miami Center
06:51PM 26.9653 -80.6253 170° South 120 138 4,000 -60 Climbing Miami Center
06:53PM 26.9099 -80.5870 147° Southeast  Level FlightAware Approximate
07:00PM 26.7210 -80.4477 147° Southeast  Level FlightAware Approximate
07:01PM 26.6940 -80.4278 147° Southeast  Level FlightAware Approximate
07:02PM 26.6670 -80.4079 147° Southeast  Level FlightAware Approximate
07:03PM 26.6400 -80.3881 147° Southeast  Level FlightAware Approximate
07:04PM 26.6130 -80.3682 147° Southeast  Level FlightAware Approximate
07:05PM 26.5860 -80.3484 147° Southeast  Level FlightAware Approximate
07:05PM 26.5164 -80.4575 147° Southeast 116 133 3,100  Level Miami Center
07:05PM 26.4978 -80.4500 160° South 117 135 3,100  Level Miami Center
07:06PM 26.5589 -80.3286 147° Southeast  Level FlightAware Approximate
07:06PM 26.4672 -80.4258 145° Southeast 135 155 3,100  Level Miami Center
07:07PM 26.5319 -80.3088 147° Southeast  Level FlightAware Approximate
07:07PM 26.4425 -80.4019 139° Southeast 130 150 2,900  Level Miami Center
07:08PM 26.5049 -80.2890 147° Southeast  Level FlightAware Approximate
07:08PM 26.4331 -80.3669 107° East 121 139 2,200  Level Miami Center
07:09PM 26.4779 -80.2692 147° Southeast  Level FlightAware Approximate
07:09PM 26.4317 -80.3322 93° East 118 136 2,000  Level Miami Center
07:10PM 26.4509 -80.2494 147° Southeast  Level FlightAware Approximate
07:10PM 26.4264 -80.2994 100° East 103 119 2,000  Level Miami Center
07:11PM 26.4167 -80.2644 107° East 111 128 2,100 60 Climbing Miami Center
07:12PM 26.3964 -80.2361 129° Southeast 131 151 2,200  Climbing Miami Center
07:13PM 26.3719 -80.2144 142° Southeast 125 144 2,100 -60 Descending Miami Center
07:14PM 26.3411 -80.1928 148° Southeast 119 137 2,100 -120 Level Miami Center
07:16PM 26.3122 -80.1686 143° Southeast 116 133 1,900 -420 Descending Miami Center
07:17PM 26.2858 -80.1447 141° Southeast 124 143 1,300 -600 Descending Miami Center
07:18PM 26.2633 -80.1211 137° Southeast 105 121 700 -300 Descending Miami Center
07:19PM 26.2639 -80.0908 89° East 100 115 800 120 Climbing Miami Center
07:20PM 26.2539 -80.0697 118° Southeast 115 132 1,000 -120 Climbing Miami Center
07:21PM 26.2411 -80.0881 232° Southwest 83 96 600 -480 Descending Miami Center
07:23PM 26.2333 -80.1000 270° West  Level FlightAware Approximate
07:30PM 26.2471 -80.1111 270° West  Level Estimated